Airfield :







YOU CAN JOIN US ON...

 
LOGIN :

Register | Disclaimer

   EN    FR    IT 

 









Legend :    VFR   Marginal VFR   IFR   Intensive IFR   Very Intensive IFR
Visi :
Ceiling :
>= 8 km
>= 3000ft
5 to 8 km
1000 to 3000 ft
1500m to 5 km
500 to 1000 ft
800 to 1500m
200 to 500 ft
< 800m
< 200 ft
Symbols :   Thunderstorms  Fog  Heavy snow  Heavy precipitations  Wind > 20 kt






- Airport Elevation : 160 ft
- IATA code : YYR


CYYR - Goose Bay

CURRENT METAR :
  • 150900Z 27004KT 15SM FEW030 FEW070 FEW090 BKN120 16/13 A2984 RMK SC1AC1AC1AC6 SH DIST SW SLP106

EXPIRED METARs :
  • 150800Z 30003KT 15SM FEW080 BKN110 16/14 A2985 RMK AC2AC5 SLP108
  • 150700Z 26003KT 15SM FEW080 BKN100 16/14 A2986 RMK AC1AC6 SLP112

TAF TAF CYYR
Valid from the 15 at 06:00 until the 16 at 06:00 UTC


150540Z 1506/1606 VRB03KT P6SM FEW050 BKN100
TEMPO 1506/1509 P6SM -SHRA BKN050 OVC100
FM150900 VRB03KT P6SM BKN030 OVC060
TEMPO 1509/1513 5SM -SHRA BKN015 OVC030
FM151300 33005KT P6SM SCT030
FM151800 35010KT P6SM -SHRA BKN050
FM152300 30005KT P6SM SCT060 RMK NXT FCST BY 151200Z
CZQX FIR / North America



MET'MAP, your aeronautical weather chart ! - Copyright ORBIFLY December 2007 - Disclaimer

ORBIFLY MET'MAP TEAM :

Programming & Development : Alexandra Zaïnal
Original concept : Baudouin d'Aumeries
Technical & hardware support : Manuel Goepfert
Assistance : Marc-Olivier Méhu




SOURCES & CREDITS :

   NOAA